Sunday, October 22, 2017, 8:45 PM EDT
Back to Local

KBID, Block Island, Block Island State Airport

Location: Block Island, RI, United States Lat: 41.167
Local Time: 8:45 PM EDT ( 0:45 GMT) Lon: -71.567
Time Zone: US/Eastern Elev: 108 ft

Show me the last for .
Show Coded

Time T Td Feel RH Dir Speed Gust Alt SLP Vis Weather Sky Remarks
2017-10-22 19:56 61 59 - 93 210° 10 - 30.39 30.40 10 CLR 6-hr Min Temp (8pm): 61.0°F
6-hr Max Temp (8pm): 70.0°F
2017-10-22 18:56 62 59 - 89 220° 8 - 30.39 30.40 10 CLR None
2017-10-22 17:56 63 59 - 86 220° 9 - 30.39 30.40 10 CLR None
2017-10-22 16:56 67 59 - 75 230° 13 - 30.39 30.40 10 CLR None
2017-10-22 15:56 68 60 - 75 230° 12 - 30.39 30.40 10 CLR None
2017-10-22 14:56 69 59 - 70 230° 10 - 30.39 30.40 10 CLR None
2017-10-22 13:56 71 59 76 65 240° 10 - 30.39 30.40 10 CLR 6-hr Min Temp (2pm): 59.0°F
6-hr Max Temp (2pm): 72.0°F
2017-10-22 12:56 71 57 76 61 220° 8 - 30.40 30.41 10 CLR None
2017-10-22 11:56 70 55 - 59 250° 9 - 30.41 30.42 10 CLR None
2017-10-22 10:56 69 59 - 70 260° 7 - 30.42 30.42 10 CLR None
2017-10-22 09:56 66 60 - 81 260° 6 - 30.43 30.44 10 CLR None
2017-10-22 08:56 64 59 - 83 270° 6 - 30.42 30.43 10 CLR None
2017-10-22 07:56 59 58 - 96 240° 6 - 30.40 30.41 10 CLR 6-hr Min Temp (8am): 55.0°F
6-hr Max Temp (8am): 59.0°F
2017-10-22 06:56 58 57 - 96 230° 7 - 30.38 30.39 10 CLR None
2017-10-22 05:56 58 56 - 93 250° 6 - 30.37 30.38 10 CLR None
2017-10-22 04:56 57 56 - 96 230° 8 - 30.36 30.37 10 CLR None
2017-10-22 03:56 56 54 - 93 230° 6 - 30.35 30.36 10 CLR None
2017-10-22 02:56 56 54 - 93 230° 7 - 30.35 30.36 10 CLR None
2017-10-22 01:56 57 55 - 93 250° 8 - 30.36 30.37 10 CLR 6-hr Min Temp (2am): 57.0°F
6-hr Max Temp (2am): 62.1°F
2017-10-22 00:56 59 55 - 86 240° 8 - 30.36 30.37 10 CLR None
2017-10-21 23:56 60 55 - 83 250° 10 - 30.35 30.36 10 CLR 24-hr Min Temp (12am): 51.1°F
24-hr Max Temp (12am): 69.1°F
2017-10-21 22:56 61 58 - 89 260° 9 - 30.36 30.37 10 CLR None
2017-10-21 21:56 61 57 - 86 250° 9 - 30.35 30.36 10 CLR None
2017-10-21 20:56 62 58 - 86 250° 13 - 30.35 30.36 10 CLR None

Support USWX by starting your Amazon purchase here.